sensor_id;sensor_type;location;lat;lon;timestamp;P1;durP1;ratioP1;P2;durP2;ratioP2
9128;SDS011;4599;50.906;6.786;2023-08-30T00:03:13;15.87;;;12.77;;
9128;SDS011;4599;50.906;6.786;2023-08-30T00:07:35;17.33;;;12.97;;
9128;SDS011;4599;50.906;6.786;2023-08-30T00:11:57;13.53;;;12.13;;
9128;SDS011;4599;50.906;6.786;2023-08-30T00:16:20;13.00;;;11.70;;
9128;SDS011;4599;50.906;6.786;2023-08-30T00:20:42;11.93;;;10.53;;
9128;SDS011;4599;50.906;6.786;2023-08-30T00:25:04;11.77;;;9.43;;
9128;SDS011;4599;50.906;6.786;2023-08-30T00:29:26;10.47;;;9.37;;
9128;SDS011;4599;50.906;6.786;2023-08-30T00:33:50;7.93;;;7.07;;
9128;SDS011;4599;50.906;6.786;2023-08-30T00:38:12;12.13;;;7.63;;
9128;SDS011;4599;50.906;6.786;2023-08-30T00:42:33;8.77;;;7.17;;
9128;SDS011;4599;50.906;6.786;2023-08-30T00:46:55;9.00;;;6.97;;
9128;SDS011;4599;50.906;6.786;2023-08-30T00:51:18;8.87;;;7.93;;
9128;SDS011;4599;50.906;6.786;2023-08-30T00:55:41;8.37;;;7.37;;
9128;SDS011;4599;50.906;6.786;2023-08-30T01:00:04;11.20;;;8.07;;
9128;SDS011;4599;50.906;6.786;2023-08-30T01:04:28;11.93;;;7.80;;
9128;SDS011;4599;50.906;6.786;2023-08-30T01:08:51;8.93;;;8.03;;
9128;SDS011;4599;50.906;6.786;2023-08-30T01:13:14;10.50;;;8.10;;
9128;SDS011;4599;50.906;6.786;2023-08-30T01:17:41;11.53;;;8.03;;
9128;SDS011;4599;50.906;6.786;2023-08-30T01:22:05;10.17;;;7.57;;
9128;SDS011;4599;50.906;6.786;2023-08-30T01:26:38;8.80;;;7.63;;
9128;SDS011;4599;50.906;6.786;2023-08-30T01:31:07;12.60;;;7.70;;
9128;SDS011;4599;50.906;6.786;2023-08-30T01:35:30;9.37;;;7.80;;
9128;SDS011;4599;50.906;6.786;2023-08-30T01:39:54;10.37;;;7.87;;
9128;SDS011;4599;50.906;6.786;2023-08-30T01:44:17;10.43;;;8.60;;
9128;SDS011;4599;50.906;6.786;2023-08-30T01:48:41;9.87;;;8.77;;
9128;SDS011;4599;50.906;6.786;2023-08-30T01:53:03;9.43;;;8.50;;
9128;SDS011;4599;50.906;6.786;2023-08-30T01:57:25;10.87;;;9.73;;
9128;SDS011;4599;50.906;6.786;2023-08-30T02:01:47;9.67;;;8.77;;
9128;SDS011;4599;50.906;6.786;2023-08-30T02:06:11;11.47;;;8.70;;
9128;SDS011;4599;50.906;6.786;2023-08-30T02:10:37;8.87;;;8.00;;
9128;SDS011;4599;50.906;6.786;2023-08-30T02:15:06;9.43;;;7.93;;
9128;SDS011;4599;50.906;6.786;2023-08-30T02:19:29;11.30;;;8.57;;
9128;SDS011;4599;50.906;6.786;2023-08-30T02:23:53;10.07;;;8.60;;
9128;SDS011;4599;50.906;6.786;2023-08-30T02:28:15;10.17;;;8.20;;
9128;SDS011;4599;50.906;6.786;2023-08-30T02:32:36;8.60;;;7.70;;
9128;SDS011;4599;50.906;6.786;2023-08-30T02:36:58;9.83;;;7.77;;
9128;SDS011;4599;50.906;6.786;2023-08-30T02:41:21;8.37;;;7.57;;
9128;SDS011;4599;50.906;6.786;2023-08-30T02:45:43;8.67;;;7.67;;
9128;SDS011;4599;50.906;6.786;2023-08-30T02:50:05;9.97;;;7.47;;
9128;SDS011;4599;50.906;6.786;2023-08-30T02:54:28;8.63;;;7.23;;
9128;SDS011;4599;50.906;6.786;2023-08-30T02:58:51;8.60;;;7.73;;
9128;SDS011;4599;50.906;6.786;2023-08-30T03:03:13;9.00;;;7.63;;
9128;SDS011;4599;50.906;6.786;2023-08-30T03:07:34;11.97;;;7.63;;
9128;SDS011;4599;50.906;6.786;2023-08-30T03:11:56;8.23;;;7.23;;
9128;SDS011;4599;50.906;6.786;2023-08-30T03:16:20;8.17;;;7.33;;
9128;SDS011;4599;50.906;6.786;2023-08-30T03:20:42;7.60;;;6.80;;
9128;SDS011;4599;50.906;6.786;2023-08-30T03:25:04;9.07;;;6.87;;
9128;SDS011;4599;50.906;6.786;2023-08-30T03:29:26;7.80;;;7.00;;
9128;SDS011;4599;50.906;6.786;2023-08-30T03:33:49;7.60;;;6.83;;
9128;SDS011;4599;50.906;6.786;2023-08-30T03:38:11;9.77;;;7.03;;
9128;SDS011;4599;50.906;6.786;2023-08-30T03:42:33;8.17;;;6.73;;
9128;SDS011;4599;50.906;6.786;2023-08-30T03:46:55;8.07;;;7.20;;
9128;SDS011;4599;50.906;6.786;2023-08-30T03:51:18;8.57;;;7.67;;
9128;SDS011;4599;50.906;6.786;2023-08-30T03:55:40;10.67;;;7.43;;
9128;SDS011;4599;50.906;6.786;2023-08-30T04:00:02;10.87;;;7.47;;
9128;SDS011;4599;50.906;6.786;2023-08-30T04:04:24;8.47;;;7.67;;
9128;SDS011;4599;50.906;6.786;2023-08-30T04:08:47;9.80;;;7.63;;
9128;SDS011;4599;50.906;6.786;2023-08-30T04:13:10;9.87;;;7.10;;
9128;SDS011;4599;50.906;6.786;2023-08-30T04:17:33;8.97;;;6.77;;
9128;SDS011;4599;50.906;6.786;2023-08-30T04:21:55;10.90;;;7.60;;
9128;SDS011;4599;50.906;6.786;2023-08-30T04:26:18;9.97;;;7.77;;
9128;SDS011;4599;50.906;6.786;2023-08-30T04:30:40;8.67;;;7.47;;
9128;SDS011;4599;50.906;6.786;2023-08-30T04:35:02;7.80;;;7.10;;
9128;SDS011;4599;50.906;6.786;2023-08-30T04:39:24;7.67;;;6.83;;
9128;SDS011;4599;50.906;6.786;2023-08-30T04:43:47;12.17;;;7.70;;
9128;SDS011;4599;50.906;6.786;2023-08-30T04:48:09;10.83;;;7.93;;
9128;SDS011;4599;50.906;6.786;2023-08-30T04:52:31;12.43;;;8.53;;
9128;SDS011;4599;50.906;6.786;2023-08-30T04:56:53;10.80;;;9.40;;
9128;SDS011;4599;50.906;6.786;2023-08-30T05:01:20;11.57;;;9.20;;
9128;SDS011;4599;50.906;6.786;2023-08-30T05:05:44;9.33;;;8.43;;
9128;SDS011;4599;50.906;6.786;2023-08-30T05:10:07;10.83;;;8.70;;
9128;SDS011;4599;50.906;6.786;2023-08-30T05:14:29;10.53;;;8.67;;
9128;SDS011;4599;50.906;6.786;2023-08-30T05:18:52;9.67;;;8.67;;
9128;SDS011;4599;50.906;6.786;2023-08-30T05:23:14;12.27;;;9.00;;
9128;SDS011;4599;50.906;6.786;2023-08-30T05:27:36;12.37;;;10.53;;
9128;SDS011;4599;50.906;6.786;2023-08-30T05:31:58;10.97;;;9.40;;
9128;SDS011;4599;50.906;6.786;2023-08-30T05:36:21;10.53;;;9.23;;
9128;SDS011;4599;50.906;6.786;2023-08-30T05:40:43;9.90;;;8.87;;
9128;SDS011;4599;50.906;6.786;2023-08-30T05:45:05;9.93;;;7.53;;
9128;SDS011;4599;50.906;6.786;2023-08-30T05:49:28;9.70;;;7.97;;
9128;SDS011;4599;50.906;6.786;2023-08-30T05:53:51;10.37;;;7.13;;
9128;SDS011;4599;50.906;6.786;2023-08-30T05:58:13;8.47;;;6.40;;
9128;SDS011;4599;50.906;6.786;2023-08-30T06:02:35;7.97;;;5.50;;
9128;SDS011;4599;50.906;6.786;2023-08-30T06:06:56;8.43;;;5.33;;
9128;SDS011;4599;50.906;6.786;2023-08-30T06:11:20;5.87;;;4.63;;
9128;SDS011;4599;50.906;6.786;2023-08-30T06:15:41;5.67;;;4.63;;
9128;SDS011;4599;50.906;6.786;2023-08-30T06:20:03;6.50;;;4.43;;
9128;SDS011;4599;50.906;6.786;2023-08-30T06:24:26;5.17;;;4.40;;
9128;SDS011;4599;50.906;6.786;2023-08-30T06:28:49;8.23;;;4.60;;
9128;SDS011;4599;50.906;6.786;2023-08-30T06:33:25;8.70;;;4.53;;
9128;SDS011;4599;50.906;6.786;2023-08-30T06:37:47;5.53;;;4.50;;
9128;SDS011;4599;50.906;6.786;2023-08-30T06:42:09;5.60;;;4.63;;
9128;SDS011;4599;50.906;6.786;2023-08-30T06:46:32;7.10;;;4.70;;
9128;SDS011;4599;50.906;6.786;2023-08-30T06:50:56;5.23;;;4.23;;
9128;SDS011;4599;50.906;6.786;2023-08-30T06:55:19;7.33;;;4.20;;
9128;SDS011;4599;50.906;6.786;2023-08-30T06:59:40;9.30;;;4.17;;
9128;SDS011;4599;50.906;6.786;2023-08-30T07:04:04;6.50;;;4.10;;
9128;SDS011;4599;50.906;6.786;2023-08-30T07:08:26;6.00;;;4.00;;
9128;SDS011;4599;50.906;6.786;2023-08-30T07:12:47;6.23;;;4.50;;
9128;SDS011;4599;50.906;6.786;2023-08-30T07:17:09;5.47;;;4.20;;
9128;SDS011;4599;50.906;6.786;2023-08-30T07:21:32;5.93;;;4.00;;
9128;SDS011;4599;50.906;6.786;2023-08-30T07:25:54;7.13;;;3.70;;
9128;SDS011;4599;50.906;6.786;2023-08-30T07:30:16;6.17;;;3.80;;
9128;SDS011;4599;50.906;6.786;2023-08-30T07:34:38;4.43;;;3.70;;
9128;SDS011;4599;50.906;6.786;2023-08-30T07:39:01;5.97;;;3.20;;
9128;SDS011;4599;50.906;6.786;2023-08-30T07:43:23;6.37;;;3.27;;
9128;SDS011;4599;50.906;6.786;2023-08-30T07:47:45;6.13;;;3.30;;
9128;SDS011;4599;50.906;6.786;2023-08-30T07:52:07;4.80;;;2.80;;
9128;SDS011;4599;50.906;6.786;2023-08-30T07:56:30;4.77;;;2.87;;
9128;SDS011;4599;50.906;6.786;2023-08-30T08:00:52;4.90;;;3.00;;
9128;SDS011;4599;50.906;6.786;2023-08-30T08:05:14;6.00;;;2.87;;
9128;SDS011;4599;50.906;6.786;2023-08-30T08:09:36;6.23;;;2.70;;
9128;SDS011;4599;50.906;6.786;2023-08-30T08:13:59;6.30;;;2.67;;
9128;SDS011;4599;50.906;6.786;2023-08-30T08:18:21;2.97;;;2.40;;
9128;SDS011;4599;50.906;6.786;2023-08-30T08:22:43;6.97;;;2.40;;
9128;SDS011;4599;50.906;6.786;2023-08-30T08:27:05;3.53;;;2.37;;
9128;SDS011;4599;50.906;6.786;2023-08-30T08:31:28;4.70;;;2.20;;
9128;SDS011;4599;50.906;6.786;2023-08-30T08:35:50;2.77;;;2.30;;
9128;SDS011;4599;50.906;6.786;2023-08-30T08:40:12;6.60;;;2.80;;
9128;SDS011;4599;50.906;6.786;2023-08-30T08:44:34;5.13;;;2.13;;
9128;SDS011;4599;50.906;6.786;2023-08-30T08:48:59;3.67;;;2.27;;
9128;SDS011;4599;50.906;6.786;2023-08-30T08:53:23;4.03;;;2.43;;
9128;SDS011;4599;50.906;6.786;2023-08-30T08:57:45;3.90;;;2.47;;
9128;SDS011;4599;50.906;6.786;2023-08-30T09:02:10;4.23;;;2.47;;
9128;SDS011;4599;50.906;6.786;2023-08-30T09:06:36;4.67;;;2.50;;
9128;SDS011;4599;50.906;6.786;2023-08-30T09:10:59;4.30;;;2.57;;
9128;SDS011;4599;50.906;6.786;2023-08-30T09:15:29;3.67;;;2.43;;
9128;SDS011;4599;50.906;6.786;2023-08-30T09:19:52;5.03;;;2.57;;
9128;SDS011;4599;50.906;6.786;2023-08-30T09:24:16;4.27;;;1.97;;
9128;SDS011;4599;50.906;6.786;2023-08-30T09:28:41;3.30;;;2.17;;
9128;SDS011;4599;50.906;6.786;2023-08-30T09:33:03;4.07;;;2.30;;
9128;SDS011;4599;50.906;6.786;2023-08-30T09:37:26;5.67;;;2.60;;
9128;SDS011;4599;50.906;6.786;2023-08-30T09:41:49;2.70;;;2.30;;
9128;SDS011;4599;50.906;6.786;2023-08-30T09:46:12;4.07;;;2.30;;
9128;SDS011;4599;50.906;6.786;2023-08-30T09:50:34;3.83;;;2.10;;
9128;SDS011;4599;50.906;6.786;2023-08-30T09:54:57;2.73;;;2.07;;
9128;SDS011;4599;50.906;6.786;2023-08-30T09:59:21;4.30;;;2.20;;
9128;SDS011;4599;50.906;6.786;2023-08-30T10:03:43;4.87;;;2.10;;
9128;SDS011;4599;50.906;6.786;2023-08-30T10:08:06;6.53;;;2.07;;
9128;SDS011;4599;50.906;6.786;2023-08-30T10:12:28;3.87;;;2.20;;
9128;SDS011;4599;50.906;6.786;2023-08-30T10:16:55;3.30;;;2.43;;
9128;SDS011;4599;50.906;6.786;2023-08-30T10:21:23;3.93;;;2.17;;
9128;SDS011;4599;50.906;6.786;2023-08-30T10:25:45;2.63;;;2.23;;
9128;SDS011;4599;50.906;6.786;2023-08-30T10:30:12;4.70;;;2.07;;
9128;SDS011;4599;50.906;6.786;2023-08-30T10:34:37;4.30;;;2.17;;
9128;SDS011;4599;50.906;6.786;2023-08-30T10:38:59;3.07;;;2.10;;
9128;SDS011;4599;50.906;6.786;2023-08-30T10:43:30;3.17;;;2.20;;
9128;SDS011;4599;50.906;6.786;2023-08-30T10:47:55;2.83;;;1.80;;
9128;SDS011;4599;50.906;6.786;2023-08-30T10:52:20;3.70;;;2.30;;
9128;SDS011;4599;50.906;6.786;2023-08-30T10:56:45;4.60;;;2.00;;
9128;SDS011;4599;50.906;6.786;2023-08-30T11:01:08;3.40;;;2.03;;
9128;SDS011;4599;50.906;6.786;2023-08-30T11:05:32;3.13;;;1.90;;
9128;SDS011;4599;50.906;6.786;2023-08-30T11:09:55;2.87;;;1.90;;
9128;SDS011;4599;50.906;6.786;2023-08-30T11:14:17;3.27;;;2.40;;
9128;SDS011;4599;50.906;6.786;2023-08-30T11:18:40;3.40;;;2.30;;
9128;SDS011;4599;50.906;6.786;2023-08-30T11:23:02;4.37;;;2.30;;
9128;SDS011;4599;50.906;6.786;2023-08-30T11:27:25;3.77;;;2.63;;
9128;SDS011;4599;50.906;6.786;2023-08-30T11:31:47;3.87;;;2.43;;
9128;SDS011;4599;50.906;6.786;2023-08-30T11:36:10;6.60;;;2.57;;
9128;SDS011;4599;50.906;6.786;2023-08-30T11:40:32;3.77;;;2.73;;
9128;SDS011;4599;50.906;6.786;2023-08-30T11:44:55;6.53;;;3.00;;
9128;SDS011;4599;50.906;6.786;2023-08-30T11:49:19;4.00;;;2.83;;
9128;SDS011;4599;50.906;6.786;2023-08-30T11:53:41;5.73;;;3.13;;
9128;SDS011;4599;50.906;6.786;2023-08-30T11:58:04;4.50;;;2.87;;
9128;SDS011;4599;50.906;6.786;2023-08-30T12:02:27;4.77;;;3.17;;
9128;SDS011;4599;50.906;6.786;2023-08-30T12:06:52;4.00;;;2.67;;
9128;SDS011;4599;50.906;6.786;2023-08-30T12:11:17;4.77;;;3.17;;
9128;SDS011;4599;50.906;6.786;2023-08-30T12:15:40;4.87;;;3.30;;
9128;SDS011;4599;50.906;6.786;2023-08-30T12:20:04;3.63;;;2.37;;
9128;SDS011;4599;50.906;6.786;2023-08-30T12:24:26;1.97;;;1.73;;
9128;SDS011;4599;50.906;6.786;2023-08-30T12:28:48;3.13;;;1.60;;
9128;SDS011;4599;50.906;6.786;2023-08-30T12:33:10;2.50;;;1.50;;
9128;SDS011;4599;50.906;6.786;2023-08-30T12:37:34;3.27;;;1.70;;
9128;SDS011;4599;50.906;6.786;2023-08-30T12:41:56;1.73;;;1.50;;
9128;SDS011;4599;50.906;6.786;2023-08-30T12:46:18;2.73;;;1.60;;
9128;SDS011;4599;50.906;6.786;2023-08-30T12:50:40;2.67;;;1.80;;
9128;SDS011;4599;50.906;6.786;2023-08-30T12:55:04;4.40;;;1.80;;
9128;SDS011;4599;50.906;6.786;2023-08-30T12:59:26;5.53;;;2.00;;
9128;SDS011;4599;50.906;6.786;2023-08-30T13:03:48;4.13;;;1.97;;
9128;SDS011;4599;50.906;6.786;2023-08-30T13:08:10;4.23;;;1.90;;
9128;SDS011;4599;50.906;6.786;2023-08-30T13:12:33;2.83;;;2.37;;
9128;SDS011;4599;50.906;6.786;2023-08-30T13:16:56;2.90;;;2.10;;
9128;SDS011;4599;50.906;6.786;2023-08-30T13:21:21;3.33;;;2.00;;
9128;SDS011;4599;50.906;6.786;2023-08-30T13:25:56;3.40;;;2.00;;
9128;SDS011;4599;50.906;6.786;2023-08-30T13:30:19;4.03;;;1.80;;
9128;SDS011;4599;50.906;6.786;2023-08-30T13:34:41;2.47;;;1.90;;
9128;SDS011;4599;50.906;6.786;2023-08-30T13:39:02;2.03;;;1.83;;
9128;SDS011;4599;50.906;6.786;2023-08-30T13:43:24;1.83;;;1.63;;
9128;SDS011;4599;50.906;6.786;2023-08-30T13:47:48;3.57;;;1.50;;
9128;SDS011;4599;50.906;6.786;2023-08-30T13:52:09;2.80;;;1.83;;
9128;SDS011;4599;50.906;6.786;2023-08-30T13:56:31;2.23;;;2.00;;
9128;SDS011;4599;50.906;6.786;2023-08-30T14:00:53;2.37;;;1.97;;
9128;SDS011;4599;50.906;6.786;2023-08-30T14:05:16;3.80;;;2.10;;
9128;SDS011;4599;50.906;6.786;2023-08-30T14:09:38;8.00;;;2.00;;
9128;SDS011;4599;50.906;6.786;2023-08-30T14:14:00;5.20;;;2.47;;
9128;SDS011;4599;50.906;6.786;2023-08-30T14:18:23;2.23;;;2.03;;
9128;SDS011;4599;50.906;6.786;2023-08-30T14:22:46;2.53;;;2.10;;
9128;SDS011;4599;50.906;6.786;2023-08-30T14:27:08;5.20;;;2.50;;
9128;SDS011;4599;50.906;6.786;2023-08-30T14:31:29;4.43;;;2.63;;
9128;SDS011;4599;50.906;6.786;2023-08-30T14:35:51;4.07;;;2.47;;
9128;SDS011;4599;50.906;6.786;2023-08-30T14:40:14;3.37;;;3.00;;
9128;SDS011;4599;50.906;6.786;2023-08-30T14:44:36;4.20;;;2.57;;
9128;SDS011;4599;50.906;6.786;2023-08-30T14:48:58;4.63;;;2.93;;
9128;SDS011;4599;50.906;6.786;2023-08-30T14:53:20;3.10;;;2.80;;
9128;SDS011;4599;50.906;6.786;2023-08-30T14:57:43;3.17;;;2.77;;
9128;SDS011;4599;50.906;6.786;2023-08-30T15:02:05;4.67;;;2.90;;
9128;SDS011;4599;50.906;6.786;2023-08-30T15:06:27;4.93;;;2.97;;
9128;SDS011;4599;50.906;6.786;2023-08-30T15:10:49;3.30;;;2.73;;
9128;SDS011;4599;50.906;6.786;2023-08-30T15:15:13;5.27;;;2.90;;
9128;SDS011;4599;50.906;6.786;2023-08-30T15:19:35;3.13;;;2.80;;
9128;SDS011;4599;50.906;6.786;2023-08-30T15:23:57;4.97;;;3.20;;
9128;SDS011;4599;50.906;6.786;2023-08-30T15:28:19;5.30;;;4.13;;
9128;SDS011;4599;50.906;6.786;2023-08-30T15:32:42;4.20;;;3.90;;
9128;SDS011;4599;50.906;6.786;2023-08-30T15:37:04;4.10;;;3.67;;
9128;SDS011;4599;50.906;6.786;2023-08-30T15:41:26;5.27;;;4.10;;
9128;SDS011;4599;50.906;6.786;2023-08-30T15:45:47;4.50;;;3.87;;
9128;SDS011;4599;50.906;6.786;2023-08-30T15:50:11;4.57;;;3.80;;
9128;SDS011;4599;50.906;6.786;2023-08-30T15:54:32;4.03;;;3.57;;
9128;SDS011;4599;50.906;6.786;2023-08-30T15:58:54;4.13;;;3.40;;
9128;SDS011;4599;50.906;6.786;2023-08-30T16:03:16;5.07;;;4.03;;
9128;SDS011;4599;50.906;6.786;2023-08-30T16:07:40;6.33;;;4.20;;
9128;SDS011;4599;50.906;6.786;2023-08-30T16:12:02;5.40;;;4.10;;
9128;SDS011;4599;50.906;6.786;2023-08-30T16:16:24;6.40;;;3.90;;
9128;SDS011;4599;50.906;6.786;2023-08-30T16:20:48;6.53;;;4.30;;
9128;SDS011;4599;50.906;6.786;2023-08-30T16:25:12;5.77;;;4.13;;
9128;SDS011;4599;50.906;6.786;2023-08-30T16:29:34;6.03;;;4.27;;
9128;SDS011;4599;50.906;6.786;2023-08-30T16:33:55;7.73;;;4.53;;
9128;SDS011;4599;50.906;6.786;2023-08-30T16:38:17;6.20;;;4.63;;
9128;SDS011;4599;50.906;6.786;2023-08-30T16:42:40;5.83;;;4.80;;
9128;SDS011;4599;50.906;6.786;2023-08-30T16:47:02;6.37;;;4.90;;
9128;SDS011;4599;50.906;6.786;2023-08-30T16:51:24;7.63;;;5.00;;
9128;SDS011;4599;50.906;6.786;2023-08-30T16:55:46;8.27;;;5.40;;
9128;SDS011;4599;50.906;6.786;2023-08-30T17:00:10;9.00;;;5.53;;
9128;SDS011;4599;50.906;6.786;2023-08-30T17:04:32;7.10;;;5.47;;
9128;SDS011;4599;50.906;6.786;2023-08-30T17:08:55;6.23;;;5.57;;
9128;SDS011;4599;50.906;6.786;2023-08-30T17:13:17;7.60;;;5.70;;
9128;SDS011;4599;50.906;6.786;2023-08-30T17:17:40;6.63;;;5.47;;
9128;SDS011;4599;50.906;6.786;2023-08-30T17:22:02;11.10;;;6.50;;
9128;SDS011;4599;50.906;6.786;2023-08-30T17:26:24;6.87;;;6.07;;
9128;SDS011;4599;50.906;6.786;2023-08-30T17:30:46;7.27;;;5.90;;
9128;SDS011;4599;50.906;6.786;2023-08-30T17:35:10;7.30;;;5.00;;
9128;SDS011;4599;50.906;6.786;2023-08-30T17:39:31;5.57;;;5.07;;
9128;SDS011;4599;50.906;6.786;2023-08-30T17:43:53;8.67;;;5.13;;
9128;SDS011;4599;50.906;6.786;2023-08-30T17:48:15;10.27;;;5.63;;
9128;SDS011;4599;50.906;6.786;2023-08-30T17:52:38;5.67;;;4.90;;
9128;SDS011;4599;50.906;6.786;2023-08-30T17:57:00;6.80;;;5.10;;
9128;SDS011;4599;50.906;6.786;2023-08-30T18:01:22;8.30;;;5.10;;
9128;SDS011;4599;50.906;6.786;2023-08-30T18:05:44;7.17;;;3.73;;
9128;SDS011;4599;50.906;6.786;2023-08-30T18:10:07;8.67;;;2.37;;
9128;SDS011;4599;50.906;6.786;2023-08-30T18:14:30;6.90;;;1.87;;
9128;SDS011;4599;50.906;6.786;2023-08-30T18:18:51;6.00;;;1.87;;
9128;SDS011;4599;50.906;6.786;2023-08-30T18:23:16;5.23;;;1.70;;
9128;SDS011;4599;50.906;6.786;2023-08-30T18:27:39;5.73;;;1.87;;
9128;SDS011;4599;50.906;6.786;2023-08-30T18:32:01;3.93;;;1.57;;
9128;SDS011;4599;50.906;6.786;2023-08-30T18:36:24;2.27;;;1.50;;
9128;SDS011;4599;50.906;6.786;2023-08-30T18:40:46;5.03;;;2.00;;
9128;SDS011;4599;50.906;6.786;2023-08-30T18:45:18;4.13;;;1.80;;
9128;SDS011;4599;50.906;6.786;2023-08-30T18:49:40;5.17;;;2.03;;
9128;SDS011;4599;50.906;6.786;2023-08-30T18:54:02;6.30;;;1.90;;
9128;SDS011;4599;50.906;6.786;2023-08-30T18:58:24;4.40;;;2.13;;
9128;SDS011;4599;50.906;6.786;2023-08-30T19:02:47;8.33;;;2.00;;
9128;SDS011;4599;50.906;6.786;2023-08-30T19:07:09;6.97;;;2.07;;
9128;SDS011;4599;50.906;6.786;2023-08-30T19:11:30;5.00;;;1.80;;
9128;SDS011;4599;50.906;6.786;2023-08-30T19:15:52;5.33;;;2.07;;
9128;SDS011;4599;50.906;6.786;2023-08-30T19:20:15;13.57;;;2.67;;
9128;SDS011;4599;50.906;6.786;2023-08-30T19:24:37;5.80;;;2.10;;
9128;SDS011;4599;50.906;6.786;2023-08-30T19:28:59;6.33;;;2.67;;
9128;SDS011;4599;50.906;6.786;2023-08-30T19:33:21;7.63;;;2.50;;
9128;SDS011;4599;50.906;6.786;2023-08-30T19:37:44;5.00;;;2.50;;
9128;SDS011;4599;50.906;6.786;2023-08-30T19:42:06;8.83;;;2.93;;
9128;SDS011;4599;50.906;6.786;2023-08-30T19:46:28;9.20;;;2.60;;
9128;SDS011;4599;50.906;6.786;2023-08-30T19:50:50;9.13;;;2.63;;
9128;SDS011;4599;50.906;6.786;2023-08-30T19:55:14;8.53;;;2.93;;
9128;SDS011;4599;50.906;6.786;2023-08-30T19:59:36;7.90;;;2.53;;
9128;SDS011;4599;50.906;6.786;2023-08-30T20:03:58;5.60;;;3.00;;
9128;SDS011;4599;50.906;6.786;2023-08-30T20:08:20;4.17;;;2.50;;
9128;SDS011;4599;50.906;6.786;2023-08-30T20:12:43;8.73;;;2.53;;
9128;SDS011;4599;50.906;6.786;2023-08-30T20:17:05;6.17;;;2.43;;
9128;SDS011;4599;50.906;6.786;2023-08-30T20:21:27;5.83;;;2.43;;
9128;SDS011;4599;50.906;6.786;2023-08-30T20:25:48;3.97;;;2.40;;
9128;SDS011;4599;50.906;6.786;2023-08-30T20:30:12;7.50;;;2.60;;
9128;SDS011;4599;50.906;6.786;2023-08-30T20:34:34;5.30;;;2.40;;
9128;SDS011;4599;50.906;6.786;2023-08-30T20:38:56;4.67;;;2.03;;
9128;SDS011;4599;50.906;6.786;2023-08-30T20:43:18;4.37;;;2.23;;
9128;SDS011;4599;50.906;6.786;2023-08-30T20:47:41;4.83;;;1.70;;
9128;SDS011;4599;50.906;6.786;2023-08-30T20:52:03;9.57;;;2.50;;
9128;SDS011;4599;50.906;6.786;2023-08-30T20:56:26;7.27;;;2.33;;
9128;SDS011;4599;50.906;6.786;2023-08-30T21:00:53;4.10;;;2.27;;
9128;SDS011;4599;50.906;6.786;2023-08-30T21:05:17;5.70;;;2.30;;
9128;SDS011;4599;50.906;6.786;2023-08-30T21:09:38;7.23;;;2.90;;
9128;SDS011;4599;50.906;6.786;2023-08-30T21:14:00;7.93;;;2.37;;
9128;SDS011;4599;50.906;6.786;2023-08-30T21:18:22;9.23;;;2.50;;
9128;SDS011;4599;50.906;6.786;2023-08-30T21:22:45;5.93;;;2.70;;
9128;SDS011;4599;50.906;6.786;2023-08-30T21:27:07;4.40;;;2.77;;
9128;SDS011;4599;50.906;6.786;2023-08-30T21:31:29;6.37;;;2.73;;
9128;SDS011;4599;50.906;6.786;2023-08-30T21:35:51;5.03;;;3.30;;
9128;SDS011;4599;50.906;6.786;2023-08-30T21:40:14;5.17;;;3.07;;
9128;SDS011;4599;50.906;6.786;2023-08-30T21:44:36;12.43;;;3.70;;
9128;SDS011;4599;50.906;6.786;2023-08-30T21:48:58;8.30;;;3.63;;
9128;SDS011;4599;50.906;6.786;2023-08-30T21:53:20;9.23;;;3.70;;
9128;SDS011;4599;50.906;6.786;2023-08-30T21:57:43;8.23;;;4.13;;
9128;SDS011;4599;50.906;6.786;2023-08-30T22:02:05;7.00;;;3.73;;
9128;SDS011;4599;50.906;6.786;2023-08-30T22:06:27;8.60;;;4.00;;
9128;SDS011;4599;50.906;6.786;2023-08-30T22:10:49;10.70;;;4.30;;
9128;SDS011;4599;50.906;6.786;2023-08-30T22:15:12;6.80;;;3.93;;
9128;SDS011;4599;50.906;6.786;2023-08-30T22:19:34;8.30;;;4.23;;
9128;SDS011;4599;50.906;6.786;2023-08-30T22:23:57;6.77;;;3.87;;
9128;SDS011;4599;50.906;6.786;2023-08-30T22:28:19;10.30;;;4.10;;
9128;SDS011;4599;50.906;6.786;2023-08-30T22:32:42;11.47;;;4.53;;
9128;SDS011;4599;50.906;6.786;2023-08-30T22:37:04;6.27;;;3.80;;
9128;SDS011;4599;50.906;6.786;2023-08-30T22:41:25;6.47;;;3.53;;
9128;SDS011;4599;50.906;6.786;2023-08-30T22:45:47;10.50;;;4.03;;
9128;SDS011;4599;50.906;6.786;2023-08-30T22:50:10;5.07;;;3.47;;
9128;SDS011;4599;50.906;6.786;2023-08-30T22:54:32;6.33;;;3.50;;
9128;SDS011;4599;50.906;6.786;2023-08-30T22:58:54;10.40;;;3.70;;
9128;SDS011;4599;50.906;6.786;2023-08-30T23:03:16;5.93;;;3.20;;
9128;SDS011;4599;50.906;6.786;2023-08-30T23:07:39;6.20;;;3.13;;
9128;SDS011;4599;50.906;6.786;2023-08-30T23:12:01;8.33;;;3.43;;
9128;SDS011;4599;50.906;6.786;2023-08-30T23:16:23;7.70;;;3.10;;
9128;SDS011;4599;50.906;6.786;2023-08-30T23:20:44;8.83;;;3.40;;
9128;SDS011;4599;50.906;6.786;2023-08-30T23:25:08;6.50;;;3.37;;
9128;SDS011;4599;50.906;6.786;2023-08-30T23:29:31;6.50;;;3.13;;
9128;SDS011;4599;50.906;6.786;2023-08-30T23:33:52;10.90;;;3.67;;
9128;SDS011;4599;50.906;6.786;2023-08-30T23:38:14;6.07;;;2.90;;
9128;SDS011;4599;50.906;6.786;2023-08-30T23:42:37;8.07;;;3.23;;
9128;SDS011;4599;50.906;6.786;2023-08-30T23:46:59;8.47;;;2.97;;
9128;SDS011;4599;50.906;6.786;2023-08-30T23:51:21;6.63;;;3.13;;
9128;SDS011;4599;50.906;6.786;2023-08-30T23:55:45;4.57;;;2.77;;
